sensor_id;sensor_type;location;lat;lon;timestamp;P1;durP1;ratioP1;P2;durP2;ratioP2
37063;SDS011;23211;53.912;9.138;2022-11-15T00:02:02;49.78;;;31.02;;
37063;SDS011;23211;53.912;9.138;2022-11-15T00:05:08;50.60;;;31.13;;
37063;SDS011;23211;53.912;9.138;2022-11-15T00:08:13;50.78;;;30.95;;
37063;SDS011;23211;53.912;9.138;2022-11-15T00:11:17;48.45;;;30.30;;
37063;SDS011;23211;53.912;9.138;2022-11-15T00:14:22;52.78;;;32.45;;
37063;SDS011;23211;53.912;9.138;2022-11-15T00:17:26;49.75;;;30.58;;
37063;SDS011;23211;53.912;9.138;2022-11-15T00:20:31;52.55;;;32.25;;
37063;SDS011;23211;53.912;9.138;2022-11-15T00:23:38;51.15;;;31.55;;
37063;SDS011;23211;53.912;9.138;2022-11-15T00:26:43;56.30;;;33.97;;
37063;SDS011;23211;53.912;9.138;2022-11-15T00:29:47;56.47;;;31.30;;
37063;SDS011;23211;53.912;9.138;2022-11-15T00:32:51;45.47;;;29.95;;
37063;SDS011;23211;53.912;9.138;2022-11-15T00:36:02;52.03;;;30.48;;
37063;SDS011;23211;53.912;9.138;2022-11-15T00:39:08;52.25;;;29.98;;
37063;SDS011;23211;53.912;9.138;2022-11-15T00:42:12;57.17;;;32.75;;
37063;SDS011;23211;53.912;9.138;2022-11-15T00:45:16;49.95;;;31.92;;
37063;SDS011;23211;53.912;9.138;2022-11-15T00:48:21;52.25;;;32.10;;
37063;SDS011;23211;53.912;9.138;2022-11-15T00:51:25;50.55;;;31.02;;
37063;SDS011;23211;53.912;9.138;2022-11-15T00:54:29;53.78;;;32.03;;
37063;SDS011;23211;53.912;9.138;2022-11-15T00:57:33;51.75;;;31.20;;
37063;SDS011;23211;53.912;9.138;2022-11-15T01:00:38;47.42;;;30.50;;
37063;SDS011;23211;53.912;9.138;2022-11-15T01:03:42;48.90;;;30.30;;
37063;SDS011;23211;53.912;9.138;2022-11-15T01:06:46;54.08;;;31.50;;
37063;SDS011;23211;53.912;9.138;2022-11-15T01:09:50;54.58;;;30.20;;
37063;SDS011;23211;53.912;9.138;2022-11-15T01:12:55;46.53;;;29.90;;
37063;SDS011;23211;53.912;9.138;2022-11-15T01:16:05;50.92;;;29.60;;
37063;SDS011;23211;53.912;9.138;2022-11-15T01:19:13;50.85;;;30.77;;
37063;SDS011;23211;53.912;9.138;2022-11-15T01:22:18;45.47;;;29.25;;
37063;SDS011;23211;53.912;9.138;2022-11-15T01:25:22;47.40;;;29.30;;
37063;SDS011;23211;53.912;9.138;2022-11-15T01:28:29;44.17;;;28.55;;
37063;SDS011;23211;53.912;9.138;2022-11-15T01:31:38;49.67;;;29.90;;
37063;SDS011;23211;53.912;9.138;2022-11-15T01:34:42;44.92;;;27.92;;
37063;SDS011;23211;53.912;9.138;2022-11-15T01:37:46;45.03;;;28.58;;
37063;SDS011;23211;53.912;9.138;2022-11-15T01:40:50;43.33;;;27.35;;
37063;SDS011;23211;53.912;9.138;2022-11-15T01:43:56;44.95;;;28.48;;
37063;SDS011;23211;53.912;9.138;2022-11-15T01:47:03;45.22;;;27.58;;
37063;SDS011;23211;53.912;9.138;2022-11-15T01:50:16;45.78;;;27.52;;
37063;SDS011;23211;53.912;9.138;2022-11-15T01:53:23;43.25;;;26.58;;
37063;SDS011;23211;53.912;9.138;2022-11-15T01:56:30;38.35;;;24.85;;
37063;SDS011;23211;53.912;9.138;2022-11-15T01:59:40;38.58;;;24.80;;
37063;SDS011;23211;53.912;9.138;2022-11-15T02:02:47;41.95;;;25.85;;
37063;SDS011;23211;53.912;9.138;2022-11-15T02:05:52;41.83;;;27.35;;
37063;SDS011;23211;53.912;9.138;2022-11-15T02:08:57;35.22;;;24.15;;
37063;SDS011;23211;53.912;9.138;2022-11-15T02:12:03;43.70;;;26.58;;
37063;SDS011;23211;53.912;9.138;2022-11-15T02:15:10;45.42;;;26.63;;
37063;SDS011;23211;53.912;9.138;2022-11-15T02:25:08;39.97;;;25.10;;
37063;SDS011;23211;53.912;9.138;2022-11-15T02:34:57;37.50;;;23.73;;
37063;SDS011;23211;53.912;9.138;2022-11-15T02:41:30;39.00;;;24.58;;
37063;SDS011;23211;53.912;9.138;2022-11-15T02:44:39;37.78;;;23.60;;
37063;SDS011;23211;53.912;9.138;2022-11-15T02:47:50;36.28;;;23.05;;
37063;SDS011;23211;53.912;9.138;2022-11-15T02:50:58;34.60;;;22.58;;
37063;SDS011;23211;53.912;9.138;2022-11-15T02:54:05;37.58;;;25.17;;
37063;SDS011;23211;53.912;9.138;2022-11-15T02:57:14;33.40;;;22.30;;
37063;SDS011;23211;53.912;9.138;2022-11-15T03:00:22;41.17;;;24.52;;
37063;SDS011;23211;53.912;9.138;2022-11-15T03:03:36;42.05;;;25.02;;
37063;SDS011;23211;53.912;9.138;2022-11-15T03:07:50;36.05;;;23.10;;
37063;SDS011;23211;53.912;9.138;2022-11-15T03:10:55;35.47;;;22.80;;
37063;SDS011;23211;53.912;9.138;2022-11-15T03:17:38;33.67;;;20.73;;
37063;SDS011;23211;53.912;9.138;2022-11-15T03:20:48;35.83;;;20.75;;
37063;SDS011;23211;53.912;9.138;2022-11-15T03:23:54;35.67;;;22.75;;
37063;SDS011;23211;53.912;9.138;2022-11-15T03:27:00;34.60;;;22.33;;
37063;SDS011;23211;53.912;9.138;2022-11-15T03:30:07;34.45;;;21.77;;
37063;SDS011;23211;53.912;9.138;2022-11-15T03:33:12;34.50;;;22.45;;
37063;SDS011;23211;53.912;9.138;2022-11-15T03:36:17;33.63;;;22.38;;
37063;SDS011;23211;53.912;9.138;2022-11-15T03:39:22;35.83;;;21.38;;
37063;SDS011;23211;53.912;9.138;2022-11-15T03:42:29;33.20;;;22.17;;
37063;SDS011;23211;53.912;9.138;2022-11-15T03:45:44;40.67;;;22.23;;
37063;SDS011;23211;53.912;9.138;2022-11-15T03:49:00;31.90;;;20.77;;
37063;SDS011;23211;53.912;9.138;2022-11-15T03:52:10;31.20;;;20.23;;
37063;SDS011;23211;53.912;9.138;2022-11-15T03:55:16;33.83;;;21.73;;
37063;SDS011;23211;53.912;9.138;2022-11-15T03:58:23;29.98;;;20.05;;
37063;SDS011;23211;53.912;9.138;2022-11-15T04:01:27;29.67;;;19.15;;
37063;SDS011;23211;53.912;9.138;2022-11-15T04:04:31;35.33;;;21.95;;
37063;SDS011;23211;53.912;9.138;2022-11-15T04:07:35;34.83;;;20.80;;
37063;SDS011;23211;53.912;9.138;2022-11-15T04:10:40;32.38;;;21.25;;
37063;SDS011;23211;53.912;9.138;2022-11-15T04:13:44;35.05;;;21.83;;
37063;SDS011;23211;53.912;9.138;2022-11-15T04:16:49;32.83;;;21.25;;
37063;SDS011;23211;53.912;9.138;2022-11-15T04:19:53;32.70;;;21.70;;
37063;SDS011;23211;53.912;9.138;2022-11-15T04:23:17;35.20;;;21.23;;
37063;SDS011;23211;53.912;9.138;2022-11-15T04:26:45;31.60;;;20.42;;
37063;SDS011;23211;53.912;9.138;2022-11-15T04:29:50;30.88;;;20.85;;
37063;SDS011;23211;53.912;9.138;2022-11-15T04:32:54;32.13;;;21.25;;
37063;SDS011;23211;53.912;9.138;2022-11-15T04:35:58;29.77;;;20.27;;
37063;SDS011;23211;53.912;9.138;2022-11-15T04:39:21;30.83;;;20.00;;
37063;SDS011;23211;53.912;9.138;2022-11-15T04:42:26;29.13;;;19.27;;
37063;SDS011;23211;53.912;9.138;2022-11-15T04:45:30;28.92;;;18.42;;
37063;SDS011;23211;53.912;9.138;2022-11-15T04:48:34;30.38;;;19.63;;
37063;SDS011;23211;53.912;9.138;2022-11-15T04:51:39;30.27;;;20.35;;
37063;SDS011;23211;53.912;9.138;2022-11-15T04:54:43;28.92;;;20.08;;
37063;SDS011;23211;53.912;9.138;2022-11-15T04:57:47;27.75;;;18.60;;
37063;SDS011;23211;53.912;9.138;2022-11-15T05:00:51;31.05;;;19.00;;
37063;SDS011;23211;53.912;9.138;2022-11-15T05:03:55;27.45;;;18.58;;
37063;SDS011;23211;53.912;9.138;2022-11-15T05:07:18;26.27;;;18.50;;
37063;SDS011;23211;53.912;9.138;2022-11-15T05:10:23;29.35;;;19.70;;
37063;SDS011;23211;53.912;9.138;2022-11-15T05:13:27;35.03;;;18.77;;
37063;SDS011;23211;53.912;9.138;2022-11-15T05:16:32;31.73;;;19.67;;
37063;SDS011;23211;53.912;9.138;2022-11-15T05:19:36;28.13;;;17.83;;
37063;SDS011;23211;53.912;9.138;2022-11-15T05:22:40;27.95;;;17.67;;
37063;SDS011;23211;53.912;9.138;2022-11-15T05:25:45;27.95;;;18.33;;
37063;SDS011;23211;53.912;9.138;2022-11-15T05:28:56;28.48;;;17.98;;
37063;SDS011;23211;53.912;9.138;2022-11-15T05:32:03;30.02;;;18.67;;
37063;SDS011;23211;53.912;9.138;2022-11-15T05:35:22;31.60;;;19.27;;
37063;SDS011;23211;53.912;9.138;2022-11-15T05:38:35;32.35;;;19.38;;
37063;SDS011;23211;53.912;9.138;2022-11-15T05:41:41;27.17;;;17.85;;
37063;SDS011;23211;53.912;9.138;2022-11-15T05:44:50;28.40;;;18.10;;
37063;SDS011;23211;53.912;9.138;2022-11-15T05:47:55;39.05;;;19.23;;
37063;SDS011;23211;53.912;9.138;2022-11-15T05:51:03;29.00;;;17.73;;
37063;SDS011;23211;53.912;9.138;2022-11-15T05:54:10;27.83;;;18.85;;
37063;SDS011;23211;53.912;9.138;2022-11-15T05:57:15;30.13;;;18.80;;
37063;SDS011;23211;53.912;9.138;2022-11-15T06:00:20;31.92;;;19.73;;
37063;SDS011;23211;53.912;9.138;2022-11-15T06:03:24;31.13;;;18.52;;
37063;SDS011;23211;53.912;9.138;2022-11-15T06:06:28;25.77;;;17.05;;
37063;SDS011;23211;53.912;9.138;2022-11-15T06:09:33;24.83;;;17.05;;
37063;SDS011;23211;53.912;9.138;2022-11-15T06:12:37;25.92;;;17.10;;
37063;SDS011;23211;53.912;9.138;2022-11-15T06:15:41;31.48;;;18.33;;
37063;SDS011;23211;53.912;9.138;2022-11-15T06:18:46;28.75;;;19.33;;
37063;SDS011;23211;53.912;9.138;2022-11-15T06:21:50;27.80;;;18.58;;
37063;SDS011;23211;53.912;9.138;2022-11-15T06:24:55;27.45;;;18.38;;
37063;SDS011;23211;53.912;9.138;2022-11-15T06:27:59;27.10;;;18.65;;
37063;SDS011;23211;53.912;9.138;2022-11-15T06:31:04;29.67;;;18.23;;
37063;SDS011;23211;53.912;9.138;2022-11-15T06:34:12;27.25;;;17.02;;
37063;SDS011;23211;53.912;9.138;2022-11-15T06:37:17;27.80;;;18.58;;
37063;SDS011;23211;53.912;9.138;2022-11-15T06:40:21;28.25;;;18.08;;
37063;SDS011;23211;53.912;9.138;2022-11-15T06:43:26;28.85;;;17.25;;
37063;SDS011;23211;53.912;9.138;2022-11-15T06:46:30;33.38;;;19.77;;
37063;SDS011;23211;53.912;9.138;2022-11-15T06:49:34;28.20;;;19.20;;
37063;SDS011;23211;53.912;9.138;2022-11-15T06:52:39;27.60;;;16.83;;
37063;SDS011;23211;53.912;9.138;2022-11-15T06:55:43;28.88;;;18.35;;
37063;SDS011;23211;53.912;9.138;2022-11-15T06:58:47;28.52;;;18.85;;
37063;SDS011;23211;53.912;9.138;2022-11-15T07:01:52;28.48;;;18.02;;
37063;SDS011;23211;53.912;9.138;2022-11-15T07:04:56;26.65;;;16.48;;
37063;SDS011;23211;53.912;9.138;2022-11-15T07:08:00;24.30;;;17.08;;
37063;SDS011;23211;53.912;9.138;2022-11-15T07:11:05;30.58;;;18.25;;
37063;SDS011;23211;53.912;9.138;2022-11-15T07:14:11;30.13;;;17.80;;
37063;SDS011;23211;53.912;9.138;2022-11-15T07:17:15;29.08;;;17.67;;
37063;SDS011;23211;53.912;9.138;2022-11-15T07:20:20;27.27;;;17.55;;
37063;SDS011;23211;53.912;9.138;2022-11-15T07:23:24;29.08;;;17.95;;
37063;SDS011;23211;53.912;9.138;2022-11-15T07:26:28;27.83;;;17.52;;
37063;SDS011;23211;53.912;9.138;2022-11-15T07:29:32;28.42;;;18.42;;
37063;SDS011;23211;53.912;9.138;2022-11-15T07:32:37;26.50;;;17.73;;
37063;SDS011;23211;53.912;9.138;2022-11-15T07:35:41;25.42;;;16.98;;
37063;SDS011;23211;53.912;9.138;2022-11-15T07:38:46;25.95;;;16.80;;
37063;SDS011;23211;53.912;9.138;2022-11-15T07:41:50;26.85;;;16.27;;
37063;SDS011;23211;53.912;9.138;2022-11-15T07:45:15;25.58;;;16.10;;
37063;SDS011;23211;53.912;9.138;2022-11-15T07:48:19;26.83;;;15.65;;
37063;SDS011;23211;53.912;9.138;2022-11-15T07:51:23;24.75;;;16.77;;
37063;SDS011;23211;53.912;9.138;2022-11-15T07:54:28;28.45;;;17.13;;
37063;SDS011;23211;53.912;9.138;2022-11-15T07:57:32;26.88;;;16.75;;
37063;SDS011;23211;53.912;9.138;2022-11-15T08:00:36;24.35;;;16.45;;
37063;SDS011;23211;53.912;9.138;2022-11-15T08:03:41;28.88;;;16.05;;
37063;SDS011;23211;53.912;9.138;2022-11-15T08:06:46;25.42;;;15.48;;
37063;SDS011;23211;53.912;9.138;2022-11-15T08:09:50;21.15;;;15.57;;
37063;SDS011;23211;53.912;9.138;2022-11-15T08:13:03;25.05;;;15.32;;
37063;SDS011;23211;53.912;9.138;2022-11-15T08:16:09;25.77;;;16.05;;
37063;SDS011;23211;53.912;9.138;2022-11-15T08:19:13;20.73;;;15.77;;
37063;SDS011;23211;53.912;9.138;2022-11-15T08:22:18;23.08;;;15.15;;
37063;SDS011;23211;53.912;9.138;2022-11-15T08:25:23;29.80;;;15.38;;
37063;SDS011;23211;53.912;9.138;2022-11-15T08:28:30;27.63;;;16.23;;
37063;SDS011;23211;53.912;9.138;2022-11-15T08:31:36;23.17;;;15.88;;
37063;SDS011;23211;53.912;9.138;2022-11-15T08:34:40;23.10;;;14.90;;
37063;SDS011;23211;53.912;9.138;2022-11-15T08:37:45;23.55;;;14.80;;
37063;SDS011;23211;53.912;9.138;2022-11-15T08:40:53;24.45;;;15.10;;
37063;SDS011;23211;53.912;9.138;2022-11-15T08:44:05;25.60;;;16.08;;
37063;SDS011;23211;53.912;9.138;2022-11-15T08:47:10;26.63;;;14.77;;
37063;SDS011;23211;53.912;9.138;2022-11-15T08:50:16;21.85;;;14.32;;
37063;SDS011;23211;53.912;9.138;2022-11-15T08:53:20;23.10;;;14.75;;
37063;SDS011;23211;53.912;9.138;2022-11-15T08:56:25;21.85;;;15.38;;
37063;SDS011;23211;53.912;9.138;2022-11-15T08:59:29;22.85;;;15.20;;
37063;SDS011;23211;53.912;9.138;2022-11-15T09:02:33;23.55;;;14.27;;
37063;SDS011;23211;53.912;9.138;2022-11-15T09:05:38;23.27;;;14.52;;
37063;SDS011;23211;53.912;9.138;2022-11-15T09:08:42;22.40;;;14.02;;
37063;SDS011;23211;53.912;9.138;2022-11-15T09:11:47;25.33;;;15.77;;
37063;SDS011;23211;53.912;9.138;2022-11-15T09:14:51;20.33;;;14.35;;
37063;SDS011;23211;53.912;9.138;2022-11-15T09:17:57;21.83;;;15.35;;
37063;SDS011;23211;53.912;9.138;2022-11-15T09:21:02;22.13;;;15.75;;
37063;SDS011;23211;53.912;9.138;2022-11-15T09:24:07;21.58;;;14.82;;
37063;SDS011;23211;53.912;9.138;2022-11-15T09:27:12;22.48;;;15.40;;
37063;SDS011;23211;53.912;9.138;2022-11-15T09:30:17;23.45;;;15.23;;
37063;SDS011;23211;53.912;9.138;2022-11-15T09:33:21;23.02;;;15.52;;
37063;SDS011;23211;53.912;9.138;2022-11-15T09:36:25;25.13;;;15.65;;
37063;SDS011;23211;53.912;9.138;2022-11-15T09:39:30;29.13;;;15.18;;
37063;SDS011;23211;53.912;9.138;2022-11-15T09:45:56;25.73;;;14.00;;
37063;SDS011;23211;53.912;9.138;2022-11-15T09:49:13;20.50;;;14.63;;
37063;SDS011;23211;53.912;9.138;2022-11-15T09:52:25;21.20;;;15.20;;
37063;SDS011;23211;53.912;9.138;2022-11-15T09:55:13;22.27;;;14.40;;
37063;SDS011;23211;53.912;9.138;2022-11-15T09:58:18;22.30;;;14.77;;
37063;SDS011;23211;53.912;9.138;2022-11-15T10:01:15;22.13;;;14.30;;
37063;SDS011;23211;53.912;9.138;2022-11-15T10:04:09;22.83;;;14.32;;
37063;SDS011;23211;53.912;9.138;2022-11-15T10:10:15;24.35;;;14.57;;
37063;SDS011;23211;53.912;9.138;2022-11-15T10:13:16;23.30;;;15.40;;
37063;SDS011;23211;53.912;9.138;2022-11-15T10:19:26;26.97;;;15.23;;
37063;SDS011;23211;53.912;9.138;2022-11-15T10:22:27;24.45;;;16.45;;
37063;SDS011;23211;53.912;9.138;2022-11-15T10:25:27;24.63;;;16.17;;
37063;SDS011;23211;53.912;9.138;2022-11-15T10:28:26;26.58;;;15.95;;
37063;SDS011;23211;53.912;9.138;2022-11-15T10:31:27;21.45;;;14.82;;
37063;SDS011;23211;53.912;9.138;2022-11-15T10:34:15;24.27;;;15.07;;
37063;SDS011;23211;53.912;9.138;2022-11-15T10:37:04;23.23;;;15.43;;
37063;SDS011;23211;53.912;9.138;2022-11-15T10:40:03;34.10;;;18.13;;
37063;SDS011;23211;53.912;9.138;2022-11-15T10:45:55;24.15;;;15.02;;
37063;SDS011;23211;53.912;9.138;2022-11-15T10:49:14;26.00;;;14.80;;
37063;SDS011;23211;53.912;9.138;2022-11-15T10:55:20;27.05;;;15.88;;
37063;SDS011;23211;53.912;9.138;2022-11-15T11:01:28;23.83;;;16.40;;
37063;SDS011;23211;53.912;9.138;2022-11-15T11:04:17;27.10;;;16.67;;
37063;SDS011;23211;53.912;9.138;2022-11-15T11:07:08;29.73;;;16.77;;
37063;SDS011;23211;53.912;9.138;2022-11-15T11:13:15;26.75;;;15.85;;
37063;SDS011;23211;53.912;9.138;2022-11-15T11:19:08;30.17;;;14.70;;
37063;SDS011;23211;53.912;9.138;2022-11-15T11:22:32;25.08;;;15.13;;
37063;SDS011;23211;53.912;9.138;2022-11-15T11:25:28;23.85;;;14.95;;
37063;SDS011;23211;53.912;9.138;2022-11-15T11:47:11;25.52;;;14.95;;
37063;SDS011;23211;53.912;9.138;2022-11-15T11:50:01;23.63;;;14.70;;
37063;SDS011;23211;53.912;9.138;2022-11-15T11:53:02;35.17;;;15.23;;
37063;SDS011;23211;53.912;9.138;2022-11-15T11:55:55;21.35;;;14.13;;
37063;SDS011;23211;53.912;9.138;2022-11-15T11:58:44;21.85;;;14.00;;
37063;SDS011;23211;53.912;9.138;2022-11-15T12:01:34;21.83;;;13.65;;
37063;SDS011;23211;53.912;9.138;2022-11-15T12:07:24;19.40;;;12.85;;
37063;SDS011;23211;53.912;9.138;2022-11-15T12:10:28;20.60;;;12.95;;
37063;SDS011;23211;53.912;9.138;2022-11-15T12:13:16;18.10;;;12.63;;
37063;SDS011;23211;53.912;9.138;2022-11-15T12:19:24;19.27;;;12.20;;
37063;SDS011;23211;53.912;9.138;2022-11-15T12:25:45;17.05;;;12.95;;
37063;SDS011;23211;53.912;9.138;2022-11-15T12:28:38;16.60;;;11.63;;
37063;SDS011;23211;53.912;9.138;2022-11-15T12:31:47;18.40;;;12.77;;
37063;SDS011;23211;53.912;9.138;2022-11-15T12:34:42;17.98;;;12.73;;
37063;SDS011;23211;53.912;9.138;2022-11-15T12:40:32;23.75;;;12.85;;
37063;SDS011;23211;53.912;9.138;2022-11-15T12:43:35;18.48;;;12.75;;
37063;SDS011;23211;53.912;9.138;2022-11-15T12:52:08;17.88;;;12.65;;
37063;SDS011;23211;53.912;9.138;2022-11-15T12:54:56;17.95;;;12.88;;
37063;SDS011;23211;53.912;9.138;2022-11-15T12:57:43;18.77;;;12.55;;
37063;SDS011;23211;53.912;9.138;2022-11-15T13:03:21;18.85;;;12.80;;
37063;SDS011;23211;53.912;9.138;2022-11-15T13:06:09;17.33;;;12.18;;
37063;SDS011;23211;53.912;9.138;2022-11-15T13:17:58;23.83;;;12.23;;
37063;SDS011;23211;53.912;9.138;2022-11-15T13:20:45;19.23;;;12.52;;
37063;SDS011;23211;53.912;9.138;2022-11-15T13:23:31;29.45;;;12.38;;
37063;SDS011;23211;53.912;9.138;2022-11-15T13:26:16;18.45;;;12.10;;
37063;SDS011;23211;53.912;9.138;2022-11-15T13:29:02;21.15;;;12.20;;
37063;SDS011;23211;53.912;9.138;2022-11-15T13:31:48;20.25;;;12.18;;
37063;SDS011;23211;53.912;9.138;2022-11-15T13:34:34;15.93;;;11.52;;
37063;SDS011;23211;53.912;9.138;2022-11-15T13:46:18;17.70;;;11.38;;
37063;SDS011;23211;53.912;9.138;2022-11-15T13:49:08;19.90;;;12.05;;
37063;SDS011;23211;53.912;9.138;2022-11-15T13:51:57;20.55;;;12.43;;
37063;SDS011;23211;53.912;9.138;2022-11-15T13:54:47;18.85;;;11.50;;
37063;SDS011;23211;53.912;9.138;2022-11-15T13:57:46;18.73;;;10.10;;
37063;SDS011;23211;53.912;9.138;2022-11-15T14:03:32;15.07;;;11.85;;
37063;SDS011;23211;53.912;9.138;2022-11-15T14:06:24;22.67;;;12.30;;
37063;SDS011;23211;53.912;9.138;2022-11-15T14:09:22;18.13;;;11.75;;
37063;SDS011;23211;53.912;9.138;2022-11-15T14:12:32;21.65;;;12.00;;
37063;SDS011;23211;53.912;9.138;2022-11-15T14:18:38;17.45;;;12.20;;
37063;SDS011;23211;53.912;9.138;2022-11-15T14:21:27;20.35;;;12.00;;
37063;SDS011;23211;53.912;9.138;2022-11-15T14:24:17;17.50;;;12.30;;
37063;SDS011;23211;53.912;9.138;2022-11-15T14:27:23;17.30;;;11.75;;
37063;SDS011;23211;53.912;9.138;2022-11-15T14:30:15;18.00;;;11.70;;
37063;SDS011;23211;53.912;9.138;2022-11-15T14:33:02;16.50;;;12.10;;
37063;SDS011;23211;53.912;9.138;2022-11-15T14:36:06;14.43;;;11.32;;
37063;SDS011;23211;53.912;9.138;2022-11-15T14:38:56;17.92;;;11.93;;
37063;SDS011;23211;53.912;9.138;2022-11-15T14:41:42;21.25;;;11.93;;
37063;SDS011;23211;53.912;9.138;2022-11-15T14:44:28;15.85;;;12.07;;
37063;SDS011;23211;53.912;9.138;2022-11-15T14:47:14;25.83;;;11.93;;
37063;SDS011;23211;53.912;9.138;2022-11-15T14:50:00;16.35;;;11.27;;
37063;SDS011;23211;53.912;9.138;2022-11-15T14:52:46;16.13;;;11.27;;
37063;SDS011;23211;53.912;9.138;2022-11-15T14:55:35;17.98;;;11.23;;
37063;SDS011;23211;53.912;9.138;2022-11-15T14:58:21;16.45;;;10.82;;
37063;SDS011;23211;53.912;9.138;2022-11-15T15:01:17;24.70;;;11.50;;
37063;SDS011;23211;53.912;9.138;2022-11-15T15:04:08;17.58;;;10.68;;
37063;SDS011;23211;53.912;9.138;2022-11-15T15:06:55;17.52;;;11.38;;
37063;SDS011;23211;53.912;9.138;2022-11-15T15:09:41;17.98;;;10.77;;
37063;SDS011;23211;53.912;9.138;2022-11-15T15:12:27;14.90;;;10.60;;
37063;SDS011;23211;53.912;9.138;2022-11-15T15:15:15;19.25;;;10.82;;
37063;SDS011;23211;53.912;9.138;2022-11-15T15:18:04;16.27;;;10.63;;
37063;SDS011;23211;53.912;9.138;2022-11-15T15:20:54;16.40;;;11.10;;
37063;SDS011;23211;53.912;9.138;2022-11-15T15:23:42;18.77;;;11.05;;
37063;SDS011;23211;53.912;9.138;2022-11-15T15:26:28;16.40;;;11.43;;
37063;SDS011;23211;53.912;9.138;2022-11-15T15:29:14;17.58;;;11.23;;
37063;SDS011;23211;53.912;9.138;2022-11-15T15:32:00;16.73;;;10.70;;
37063;SDS011;23211;53.912;9.138;2022-11-15T15:34:46;14.63;;;10.45;;
37063;SDS011;23211;53.912;9.138;2022-11-15T15:37:32;22.15;;;11.18;;
37063;SDS011;23211;53.912;9.138;2022-11-15T15:40:20;17.40;;;10.85;;
37063;SDS011;23211;53.912;9.138;2022-11-15T15:43:07;17.05;;;11.70;;
37063;SDS011;23211;53.912;9.138;2022-11-15T15:45:54;17.30;;;10.45;;
37063;SDS011;23211;53.912;9.138;2022-11-15T15:48:40;16.38;;;10.40;;
37063;SDS011;23211;53.912;9.138;2022-11-15T15:51:26;16.85;;;10.57;;
37063;SDS011;23211;53.912;9.138;2022-11-15T15:54:12;18.38;;;9.82;;
37063;SDS011;23211;53.912;9.138;2022-11-15T15:56:58;19.98;;;11.75;;
37063;SDS011;23211;53.912;9.138;2022-11-15T15:59:43;14.75;;;10.15;;
37063;SDS011;23211;53.912;9.138;2022-11-15T16:02:29;14.63;;;10.90;;
37063;SDS011;23211;53.912;9.138;2022-11-15T16:05:15;14.68;;;10.60;;
37063;SDS011;23211;53.912;9.138;2022-11-15T16:08:02;16.55;;;11.18;;
37063;SDS011;23211;53.912;9.138;2022-11-15T16:10:49;16.27;;;10.13;;
37063;SDS011;23211;53.912;9.138;2022-11-15T16:13:35;19.40;;;10.50;;
37063;SDS011;23211;53.912;9.138;2022-11-15T16:16:21;15.30;;;10.43;;
37063;SDS011;23211;53.912;9.138;2022-11-15T16:19:07;17.17;;;10.48;;
37063;SDS011;23211;53.912;9.138;2022-11-15T16:21:56;16.42;;;10.55;;
37063;SDS011;23211;53.912;9.138;2022-11-15T16:24:41;16.10;;;10.10;;
37063;SDS011;23211;53.912;9.138;2022-11-15T16:27:27;17.88;;;11.32;;
37063;SDS011;23211;53.912;9.138;2022-11-15T16:30:14;16.52;;;10.32;;
37063;SDS011;23211;53.912;9.138;2022-11-15T16:33:01;15.95;;;11.07;;
37063;SDS011;23211;53.912;9.138;2022-11-15T16:35:47;19.33;;;10.50;;
37063;SDS011;23211;53.912;9.138;2022-11-15T16:38:33;15.63;;;10.60;;
37063;SDS011;23211;53.912;9.138;2022-11-15T16:41:19;16.08;;;10.73;;
37063;SDS011;23211;53.912;9.138;2022-11-15T16:44:05;15.43;;;10.77;;
37063;SDS011;23211;53.912;9.138;2022-11-15T16:46:50;16.80;;;10.25;;
37063;SDS011;23211;53.912;9.138;2022-11-15T16:49:37;17.90;;;10.85;;
37063;SDS011;23211;53.912;9.138;2022-11-15T16:52:22;21.10;;;12.18;;
37063;SDS011;23211;53.912;9.138;2022-11-15T16:55:08;18.50;;;11.70;;
37063;SDS011;23211;53.912;9.138;2022-11-15T16:57:54;16.58;;;10.70;;
37063;SDS011;23211;53.912;9.138;2022-11-15T17:00:42;14.73;;;9.98;;
37063;SDS011;23211;53.912;9.138;2022-11-15T17:03:28;14.13;;;10.23;;
37063;SDS011;23211;53.912;9.138;2022-11-15T17:06:16;13.88;;;10.45;;
37063;SDS011;23211;53.912;9.138;2022-11-15T17:09:03;17.23;;;10.48;;
37063;SDS011;23211;53.912;9.138;2022-11-15T17:11:49;15.95;;;10.80;;
37063;SDS011;23211;53.912;9.138;2022-11-15T17:14:35;19.42;;;13.27;;
37063;SDS011;23211;53.912;9.138;2022-11-15T17:17:21;17.15;;;12.73;;
37063;SDS011;23211;53.912;9.138;2022-11-15T17:20:14;17.63;;;11.60;;
37063;SDS011;23211;53.912;9.138;2022-11-15T17:23:02;13.73;;;10.82;;
37063;SDS011;23211;53.912;9.138;2022-11-15T17:25:48;15.07;;;11.05;;
37063;SDS011;23211;53.912;9.138;2022-11-15T17:28:43;17.05;;;10.40;;
37063;SDS011;23211;53.912;9.138;2022-11-15T17:31:29;17.85;;;10.90;;
37063;SDS011;23211;53.912;9.138;2022-11-15T17:34:15;15.82;;;10.60;;
37063;SDS011;23211;53.912;9.138;2022-11-15T17:37:01;16.20;;;11.05;;
37063;SDS011;23211;53.912;9.138;2022-11-15T17:39:47;15.13;;;10.25;;
37063;SDS011;23211;53.912;9.138;2022-11-15T17:42:33;15.80;;;10.70;;
37063;SDS011;23211;53.912;9.138;2022-11-15T17:45:19;16.45;;;10.32;;
37063;SDS011;23211;53.912;9.138;2022-11-15T17:48:04;19.20;;;10.48;;
37063;SDS011;23211;53.912;9.138;2022-11-15T17:50:54;17.67;;;10.23;;
37063;SDS011;23211;53.912;9.138;2022-11-15T17:53:47;16.17;;;10.80;;
37063;SDS011;23211;53.912;9.138;2022-11-15T17:56:36;16.17;;;10.88;;
37063;SDS011;23211;53.912;9.138;2022-11-15T17:59:24;14.23;;;10.32;;
37063;SDS011;23211;53.912;9.138;2022-11-15T18:02:10;16.02;;;10.80;;
37063;SDS011;23211;53.912;9.138;2022-11-15T18:04:56;15.02;;;10.70;;
37063;SDS011;23211;53.912;9.138;2022-11-15T18:07:42;19.60;;;10.93;;
37063;SDS011;23211;53.912;9.138;2022-11-15T18:10:28;21.75;;;12.05;;
37063;SDS011;23211;53.912;9.138;2022-11-15T18:13:14;21.92;;;12.25;;
37063;SDS011;23211;53.912;9.138;2022-11-15T18:15:59;16.83;;;11.23;;
37063;SDS011;23211;53.912;9.138;2022-11-15T18:18:48;17.13;;;11.18;;
37063;SDS011;23211;53.912;9.138;2022-11-15T18:21:34;14.88;;;10.18;;
37063;SDS011;23211;53.912;9.138;2022-11-15T18:24:40;14.25;;;9.43;;
37063;SDS011;23211;53.912;9.138;2022-11-15T18:27:28;14.38;;;10.00;;
37063;SDS011;23211;53.912;9.138;2022-11-15T18:30:13;17.65;;;10.80;;
37063;SDS011;23211;53.912;9.138;2022-11-15T18:32:59;15.60;;;11.20;;
37063;SDS011;23211;53.912;9.138;2022-11-15T18:35:45;15.95;;;10.27;;
37063;SDS011;23211;53.912;9.138;2022-11-15T18:38:31;18.50;;;10.77;;
37063;SDS011;23211;53.912;9.138;2022-11-15T18:41:18;15.95;;;10.30;;
37063;SDS011;23211;53.912;9.138;2022-11-15T18:44:05;14.90;;;10.70;;
37063;SDS011;23211;53.912;9.138;2022-11-15T18:46:51;15.07;;;10.82;;
37063;SDS011;23211;53.912;9.138;2022-11-15T18:49:37;19.15;;;11.02;;
37063;SDS011;23211;53.912;9.138;2022-11-15T18:52:23;14.60;;;10.82;;
37063;SDS011;23211;53.912;9.138;2022-11-15T18:55:09;19.23;;;10.65;;
37063;SDS011;23211;53.912;9.138;2022-11-15T18:57:55;14.15;;;10.82;;
37063;SDS011;23211;53.912;9.138;2022-11-15T19:00:41;15.25;;;10.93;;
37063;SDS011;23211;53.912;9.138;2022-11-15T19:03:29;15.23;;;11.20;;
37063;SDS011;23211;53.912;9.138;2022-11-15T19:06:17;17.20;;;10.45;;
37063;SDS011;23211;53.912;9.138;2022-11-15T19:11:54;15.45;;;10.05;;
37063;SDS011;23211;53.912;9.138;2022-11-15T19:14:40;17.35;;;11.25;;
37063;SDS011;23211;53.912;9.138;2022-11-15T19:17:26;16.98;;;10.93;;